This is the latest recevied weather packets stored in our database for station/object OM6ACB-6. If no packets are shown the sender has not sent any weather packets the latest 10 day(s).
| Time | Temp. | Humidity | Pressure | Rain* | Wind** | Luminosity | Snow |
|---|---|---|---|---|---|---|---|
| 1778049325 | 18.33° C | 23% | 1013.5 hPa | 0 mm | - | - | - |
| 1778048725 | 17.22° C | 24% | 1013.5 hPa | 0 mm | - | - | - |
| 1778048124 | 16.11° C | 24% | 1013.1 hPa | 0 mm | - | - | - |
| 1778047524 | 16.67° C | 24% | 1013.2 hPa | 0 mm | - | - | - |
| 1778046924 | 16.11° C | 24% | 1013.1 hPa | 0 mm | - | - | - |
| 1778046324 | 16.67° C | 24% | 1013.3 hPa | 0 mm | - | - | - |
| 1778045723 | 16.67° C | 24% | 1013.1 hPa | 0 mm | - | - | - |
| 1778045123 | 17.22° C | 24% | 1013.3 hPa | 0 mm | - | - | - |
| 1778044523 | 16.67° C | 24% | 1013.2 hPa | 0 mm | - | - | - |
| 1778043922 | 12.78° C | 26% | 1012.5 hPa | 0 mm | - | - | - |
| 1778043322 | 12.78° C | 26% | 1012.5 hPa | 0 mm | - | - | - |
| 1778042722 | 12.78° C | 26% | 1012.4 hPa | 0 mm | - | - | - |
| 1778042122 | 12.78° C | 26% | 1012.2 hPa | 0 mm | - | - | - |
| 1778041521 | 12.78° C | 26% | 1012.1 hPa | 0 mm | - | - | - |
| 1778040921 | 12.78° C | 26% | 1012.1 hPa | 0 mm | - | - | - |
| 1778040321 | 12.78° C | 26% | 1012.1 hPa | 0 mm | - | - | - |
| 1778039720 | 12.78° C | 26% | 1012 hPa | 0 mm | - | - | - |
| 1778039120 | 12.78° C | 26% | 1011.9 hPa | 0 mm | - | - | - |
| 1778038520 | 12.78° C | 26% | 1012.1 hPa | 0 mm | - | - | - |
| 1778037919 | 13.33° C | 26% | 1012 hPa | 0 mm | - | - | - |
| 1778037319 | 13.33° C | 26% | 1012 hPa | 0 mm | - | - | - |
| 1778036719 | 13.33° C | 26% | 1011.9 hPa | 0 mm | - | - | - |
| 1778036119 | 13.33° C | 26% | 1011.9 hPa | 0 mm | - | - | - |
| 1778035518 | 13.33° C | 26% | 1012 hPa | 0 mm | - | - | - |
| 1778034918 | 13.33° C | 26% | 1012 hPa | 0 mm | - | - | - |
* Rain latest hour (hover to see other rain measurements)
** Current wind speed in m/s (hover to see current wind gust speed)